createdAt,value
2023-04-20T00:00:51.001Z,1.20
2023-04-20T00:03:21.877Z,0.80
2023-04-20T00:05:50.009Z,1.40
2023-04-20T00:08:19.078Z,0.90
2023-04-20T00:10:46.965Z,0.90
2023-04-20T00:13:15.027Z,1.80
2023-04-20T00:15:42.893Z,0.80
2023-04-20T00:18:11.117Z,0.80
2023-04-20T00:20:39.436Z,1.10
2023-04-20T00:23:07.549Z,1.10
2023-04-20T00:25:35.713Z,1.60
2023-04-20T00:28:03.686Z,0.80
2023-04-20T00:30:31.628Z,0.70
2023-04-20T00:32:59.541Z,0.70
2023-04-20T00:35:27.465Z,0.90
2023-04-20T00:37:55.553Z,0.70
2023-04-20T00:40:26.722Z,0.70
2023-04-20T00:42:54.591Z,1.10
2023-04-20T00:45:24.744Z,0.90
2023-04-20T00:47:52.868Z,1.00
2023-04-20T00:50:21.790Z,0.90
2023-04-20T00:52:49.596Z,1.00
2023-04-20T00:55:18.356Z,1.40
2023-04-20T00:57:46.230Z,1.20
2023-04-20T01:00:14.387Z,0.90
2023-04-20T01:02:43.155Z,1.10
2023-04-20T01:05:11.365Z,1.30
2023-04-20T01:07:39.561Z,1.60
2023-04-20T01:10:08.265Z,0.90
2023-04-20T01:12:36.397Z,0.80
2023-04-20T01:15:08.495Z,1.30
2023-04-20T01:17:39.949Z,1.10
2023-04-20T01:20:09.241Z,0.80
2023-04-20T01:22:47.663Z,1.40
2023-04-20T01:25:15.996Z,0.80
2023-04-20T01:27:44.202Z,1.00
2023-04-20T01:30:12.456Z,1.50
2023-04-20T01:32:41.110Z,1.10
2023-04-20T01:35:09.864Z,1.00
2023-04-20T01:37:39.831Z,0.80
2023-04-20T01:40:12.064Z,1.10
2023-04-20T01:42:40.184Z,1.20
2023-04-20T01:45:08.528Z,1.20
2023-04-20T01:47:36.965Z,1.50
2023-04-20T01:50:05.395Z,1.00
2023-04-20T01:52:34.209Z,1.20
2023-04-20T01:55:02.046Z,1.60
2023-04-20T01:57:30.265Z,1.70
2023-04-20T01:59:58.300Z,1.30
2023-04-20T02:02:26.436Z,1.30
2023-04-20T02:04:55.433Z,1.40
2023-04-20T02:07:23.356Z,1.90
2023-04-20T02:09:51.717Z,0.80
2023-04-20T02:12:19.674Z,0.90
2023-04-20T02:14:47.570Z,0.80
2023-04-20T02:17:15.789Z,0.70
2023-04-20T02:19:43.941Z,1.10
2023-04-20T02:22:11.794Z,0.80
2023-04-20T02:24:39.681Z,1.00
2023-04-20T02:27:07.659Z,1.40
2023-04-20T02:29:35.846Z,1.20
2023-04-20T02:32:04.290Z,1.40
2023-04-20T02:34:32.162Z,2.60
2023-04-20T02:37:00.080Z,1.20
2023-04-20T02:39:28.032Z,0.80
2023-04-20T02:41:56.065Z,1.00
2023-04-20T02:44:24.422Z,1.20
2023-04-20T02:46:52.780Z,1.00
2023-04-20T02:49:21.682Z,1.00
2023-04-20T02:51:49.687Z,1.10
2023-04-20T02:54:17.618Z,1.00
2023-04-20T02:56:45.892Z,1.40
2023-04-20T02:59:13.835Z,0.80
2023-04-20T03:02:08.105Z,1.30
2023-04-20T03:04:36.878Z,0.80
2023-04-20T03:07:20.341Z,1.20
2023-04-20T03:09:49.463Z,1.00
2023-04-20T03:12:24.794Z,1.00
2023-04-20T03:15:11.311Z,0.90
2023-04-20T03:17:47.177Z,0.90
2023-04-20T03:20:16.720Z,0.90
2023-04-20T03:22:44.820Z,0.80
2023-04-20T03:25:12.793Z,0.70
2023-04-20T03:27:55.492Z,0.80
2023-04-20T03:30:23.541Z,0.80
2023-04-20T03:32:56.005Z,0.90
2023-04-20T03:35:24.004Z,1.20
2023-04-20T03:37:51.868Z,1.00
2023-04-20T03:40:19.663Z,0.80
2023-04-20T03:42:48.378Z,1.10
2023-04-20T03:45:16.461Z,0.90
2023-04-20T03:47:44.454Z,0.80
2023-04-20T03:50:12.442Z,1.10
2023-04-20T03:52:41.091Z,0.80
2023-04-20T03:55:09.986Z,1.10
2023-04-20T03:57:39.432Z,0.70
2023-04-20T04:00:10.789Z,0.70
2023-04-20T04:02:47.720Z,0.70
2023-04-20T04:05:20.396Z,0.80
2023-04-20T04:07:50.622Z,0.70
2023-04-20T04:10:19.152Z,0.80
2023-04-20T04:12:47.275Z,0.80
2023-04-20T04:15:15.832Z,0.70
2023-04-20T04:17:50.256Z,0.80
2023-04-20T04:21:47.509Z,0.70
2023-04-20T04:24:17.601Z,0.80
2023-04-20T04:26:58.549Z,0.80
2023-04-20T04:29:27.119Z,0.70
2023-04-20T04:31:55.425Z,0.90
2023-04-20T04:34:24.211Z,0.90
2023-04-20T04:36:53.014Z,0.80
2023-04-20T04:39:26.790Z,0.70
2023-04-20T04:42:04.289Z,0.80
2023-04-20T04:44:40.154Z,0.90
2023-04-20T04:47:09.604Z,1.10
2023-04-20T04:49:37.947Z,1.40
2023-04-20T04:52:08.435Z,1.10
2023-04-20T04:54:37.413Z,1.20
2023-04-20T04:57:06.176Z,1.20
2023-04-20T04:59:34.074Z,1.30
2023-04-20T05:02:02.300Z,1.40
2023-04-20T05:04:31.101Z,0.60
2023-04-20T05:06:59.120Z,1.00
2023-04-20T05:09:33.366Z,1.00
2023-04-20T05:12:02.789Z,0.60
2023-04-20T05:14:31.958Z,1.10
2023-04-20T05:17:00.373Z,0.80
2023-04-20T05:19:28.246Z,1.00
2023-04-20T05:21:56.108Z,1.10
2023-04-20T05:24:23.911Z,1.10
2023-04-20T05:26:51.730Z,0.80
2023-04-20T05:29:20.063Z,0.80
2023-04-20T05:31:47.957Z,1.40
2023-04-20T05:34:16.729Z,1.10
2023-04-20T05:36:44.682Z,2.10
2023-04-20T05:39:12.494Z,1.30
2023-04-20T05:41:40.758Z,1.60
2023-04-20T05:44:08.568Z,0.80
2023-04-20T05:46:37.542Z,1.10
2023-04-20T05:49:06.542Z,1.50
2023-04-20T05:51:34.437Z,1.40
2023-04-20T05:54:03.086Z,1.30
2023-04-20T05:56:31.664Z,0.90
2023-04-20T05:58:59.736Z,1.20
2023-04-20T06:01:27.630Z,1.80
2023-04-20T06:03:55.847Z,1.80
2023-04-20T06:06:24.045Z,1.70
2023-04-20T06:08:52.334Z,1.70
2023-04-20T06:11:20.637Z,1.10
2023-04-20T06:13:48.914Z,1.60
2023-04-20T06:16:16.901Z,2.00
2023-04-20T06:18:44.964Z,2.10
2023-04-20T06:21:12.828Z,2.30
2023-04-20T06:23:41.003Z,2.00
2023-04-20T06:26:10.315Z,1.30
2023-04-20T06:28:38.173Z,1.10
2023-04-20T06:31:06.368Z,1.40
2023-04-20T06:33:34.726Z,1.50
2023-04-20T06:36:02.560Z,0.90
2023-04-20T06:38:30.989Z,0.80
2023-04-20T06:41:02.076Z,2.30
2023-04-20T06:43:30.741Z,1.90
2023-04-20T06:45:58.539Z,1.60
2023-04-20T06:48:32.347Z,1.60
2023-04-20T06:51:01.802Z,2.30
2023-04-20T06:53:29.862Z,2.10
2023-04-20T06:55:57.772Z,2.10
2023-04-20T06:58:25.774Z,1.20
2023-04-20T07:00:53.679Z,2.90
2023-04-20T07:03:21.814Z,3.10
2023-04-20T07:05:49.855Z,1.80
2023-04-20T07:08:17.753Z,1.30
2023-04-20T07:10:45.594Z,1.50
2023-04-20T07:13:13.407Z,1.60
2023-04-20T07:15:41.469Z,2.20
2023-04-20T07:18:09.454Z,1.80
2023-04-20T07:20:37.640Z,1.60
2023-04-20T07:23:05.556Z,2.70
2023-04-20T07:25:33.497Z,1.10
2023-04-20T07:28:01.721Z,1.50
2023-04-20T07:30:31.347Z,1.40
2023-04-20T07:32:59.552Z,1.40
2023-04-20T07:35:27.460Z,1.70
2023-04-20T07:37:55.680Z,1.20
2023-04-20T07:40:23.658Z,1.10
2023-04-20T07:42:51.611Z,0.90
2023-04-20T07:45:19.466Z,1.40
2023-04-20T07:47:51.478Z,1.20
2023-04-20T07:50:19.610Z,1.10
2023-04-20T07:52:47.782Z,1.50
2023-04-20T07:55:17.347Z,3.70
2023-04-20T07:57:45.413Z,1.20
2023-04-20T08:00:15.243Z,1.60
2023-04-20T08:02:46.145Z,1.90
2023-04-20T08:05:14.547Z,1.10
2023-04-20T08:07:43.076Z,1.60
2023-04-20T08:10:11.252Z,1.00
2023-04-20T08:12:40.524Z,2.10
2023-04-20T08:15:09.570Z,1.40
2023-04-20T08:17:38.004Z,1.20
2023-04-20T08:20:07.289Z,1.40
2023-04-20T08:22:36.526Z,1.60
2023-04-20T08:25:05.180Z,2.00
2023-04-20T08:27:33.436Z,1.00
2023-04-20T08:30:03.795Z,0.90
2023-04-20T08:32:33.443Z,1.00
2023-04-20T08:35:01.327Z,1.20
2023-04-20T08:37:32.058Z,1.50
2023-04-20T08:40:00.755Z,0.80
2023-04-20T08:42:28.712Z,0.90
2023-04-20T08:44:58.068Z,1.10
2023-04-20T08:47:26.196Z,1.70
2023-04-20T08:49:57.700Z,1.10
2023-04-20T08:52:25.712Z,1.70
2023-04-20T08:54:57.578Z,1.10
2023-04-20T08:57:26.497Z,1.00
2023-04-20T08:59:56.563Z,1.50
2023-04-20T09:02:24.736Z,1.10
2023-04-20T09:05:06.114Z,1.50
2023-04-20T09:07:34.524Z,1.40
2023-04-20T09:10:02.448Z,0.80
2023-04-20T09:12:42.691Z,1.00
2023-04-20T09:15:11.347Z,1.50
2023-04-20T09:17:41.257Z,0.70
2023-04-20T09:20:11.389Z,1.30
2023-04-20T09:22:40.666Z,1.00
2023-04-20T09:25:17.857Z,1.40
2023-04-20T09:27:59.203Z,1.30
2023-04-20T09:30:37.421Z,1.00
2023-04-20T09:33:08.116Z,0.80
2023-04-20T09:35:38.190Z,1.50
2023-04-20T09:38:09.710Z,0.80
2023-04-20T09:40:37.746Z,1.80
2023-04-20T09:43:20.973Z,1.20
2023-04-20T09:45:49.301Z,0.80
2023-04-20T09:48:19.641Z,1.00
2023-04-20T09:50:50.644Z,1.60
2023-04-20T09:53:20.019Z,0.90
2023-04-20T09:55:48.880Z,1.50
2023-04-20T09:58:23.834Z,0.60
2023-04-20T10:00:51.932Z,1.10
2023-04-20T10:03:21.742Z,1.00
2023-04-20T10:05:51.680Z,0.80
2023-04-20T10:08:21.282Z,1.30
2023-04-20T10:10:50.268Z,1.20
2023-04-20T10:13:23.385Z,0.90
2023-04-20T10:15:51.302Z,0.90
2023-04-20T10:18:20.570Z,1.00
2023-04-20T10:20:48.945Z,1.20
2023-04-20T10:23:18.659Z,1.60
2023-04-20T10:25:57.320Z,0.80
2023-04-20T10:28:25.234Z,0.90
2023-04-20T10:30:53.812Z,1.00
2023-04-20T10:33:22.988Z,1.10
2023-04-20T10:35:52.250Z,0.90
2023-04-20T10:38:34.114Z,1.20
2023-04-20T10:41:12.929Z,0.70
2023-04-20T10:43:43.877Z,0.90
2023-04-20T10:46:18.437Z,0.80
2023-04-20T10:49:13.025Z,1.80
2023-04-20T10:51:50.784Z,0.90
2023-04-20T10:54:19.221Z,0.80
2023-04-20T10:56:51.985Z,1.10
2023-04-20T10:59:22.096Z,1.50
2023-04-20T11:01:50.308Z,1.20
2023-04-20T11:04:19.090Z,0.90
2023-04-20T11:06:48.347Z,0.80
2023-04-20T11:09:26.223Z,0.90
2023-04-20T11:12:07.538Z,1.10
2023-04-20T11:14:40.518Z,0.90
2023-04-20T11:17:08.526Z,1.30
2023-04-20T11:19:37.439Z,1.20
2023-04-20T11:22:06.457Z,1.50
2023-04-20T11:24:35.988Z,0.60
2023-04-20T11:27:04.796Z,1.20
2023-04-20T11:29:36.330Z,1.40
2023-04-20T11:32:09.332Z,0.90
2023-04-20T11:34:39.122Z,0.90
2023-04-20T11:37:08.063Z,1.30
2023-04-20T11:39:37.260Z,0.70
2023-04-20T11:42:05.791Z,1.00
2023-04-20T11:44:36.680Z,1.30
2023-04-20T11:47:05.046Z,0.60
2023-04-20T11:49:33.220Z,1.00
2023-04-20T11:52:01.315Z,0.70
2023-04-20T11:54:30.654Z,0.90
2023-04-20T11:56:59.122Z,1.00
2023-04-20T11:59:27.005Z,1.60
2023-04-20T12:01:54.920Z,0.60
2023-04-20T12:04:23.086Z,0.70
2023-04-20T12:06:51.397Z,1.10
2023-04-20T12:09:19.593Z,1.20
2023-04-20T12:11:47.898Z,1.50
2023-04-20T12:14:15.910Z,1.10
2023-04-20T12:16:43.743Z,1.90
2023-04-20T12:19:11.695Z,1.30
2023-04-20T12:21:39.524Z,1.10
2023-04-20T12:24:08.041Z,1.80
2023-04-20T12:26:38.826Z,0.80
2023-04-20T12:29:07.576Z,1.20
2023-04-20T12:31:36.154Z,1.00
2023-04-20T12:34:04.351Z,1.40
2023-04-20T12:36:32.674Z,1.00
2023-04-20T12:39:01.828Z,1.00
2023-04-20T12:41:29.760Z,1.60
2023-04-20T12:43:57.735Z,1.40
2023-04-20T12:46:25.684Z,0.90
2023-04-20T12:48:53.700Z,0.90
2023-04-20T12:51:21.663Z,1.50
2023-04-20T12:53:49.551Z,1.20
2023-04-20T12:56:17.457Z,0.80
2023-04-20T12:58:45.454Z,3.60
2023-04-20T13:01:13.335Z,6.50
2023-04-20T13:03:42.546Z,1.40
2023-04-20T13:06:13.655Z,1.70
2023-04-20T13:08:42.205Z,1.40
2023-04-20T13:11:15.402Z,1.40
2023-04-20T13:13:43.755Z,1.50
2023-04-20T13:16:11.789Z,1.10
2023-04-20T13:18:39.685Z,1.50
2023-04-20T13:21:08.391Z,0.80
2023-04-20T13:23:38.207Z,0.90
2023-04-20T13:26:06.554Z,0.80
2023-04-20T13:28:34.444Z,0.60
2023-04-20T13:31:02.291Z,0.60
2023-04-20T13:33:30.320Z,0.70
2023-04-20T13:35:58.134Z,0.70
2023-04-20T13:38:26.003Z,0.70
2023-04-20T13:40:53.920Z,0.70
2023-04-20T13:43:21.972Z,0.50
2023-04-20T13:45:49.850Z,0.80
2023-04-20T13:48:17.837Z,1.00
2023-04-20T13:50:47.396Z,1.00
2023-04-20T13:53:15.406Z,1.30
2023-04-20T13:55:43.298Z,0.70
2023-04-20T13:58:11.396Z,0.70
2023-04-20T14:00:39.386Z,1.70
2023-04-20T14:03:09.680Z,0.90
2023-04-20T14:05:38.919Z,1.10
2023-04-20T14:08:07.408Z,0.60
2023-04-20T14:10:35.412Z,0.90
2023-04-20T14:13:03.471Z,1.00
2023-04-20T14:15:31.686Z,1.00
2023-04-20T14:18:00.679Z,1.10
2023-04-20T14:20:28.905Z,1.20
2023-04-20T14:22:56.898Z,1.10
2023-04-20T14:25:24.819Z,1.60
2023-04-20T14:27:52.651Z,1.50
2023-04-20T14:30:20.706Z,1.60
2023-04-20T14:32:56.010Z,1.00
2023-04-20T14:35:24.736Z,0.90
2023-04-20T14:37:52.914Z,0.90
2023-04-20T14:40:20.891Z,0.80
2023-04-20T14:42:48.942Z,1.40
2023-04-20T14:45:16.891Z,1.10
2023-04-20T14:47:44.971Z,1.10
2023-04-20T14:50:12.922Z,0.80
2023-04-20T14:52:40.952Z,1.00
2023-04-20T14:55:08.969Z,0.80
2023-04-20T14:57:37.135Z,0.80
2023-04-20T15:00:06.154Z,1.00
2023-04-20T15:02:34.809Z,1.10
2023-04-20T15:05:04.685Z,0.80
2023-04-20T15:07:34.620Z,1.00
2023-04-20T15:10:02.924Z,0.90
2023-04-20T15:12:31.168Z,1.20
2023-04-20T15:14:59.081Z,1.00
2023-04-20T15:17:27.032Z,1.00
2023-04-20T15:19:54.919Z,1.00
2023-04-20T15:22:23.105Z,1.50
2023-04-20T15:24:51.140Z,0.90
2023-04-20T15:27:19.031Z,0.80
2023-04-20T15:29:46.999Z,1.30
2023-04-20T15:32:14.942Z,0.80
2023-04-20T15:34:43.170Z,0.90
2023-04-20T15:37:11.104Z,1.30
2023-04-20T15:39:39.067Z,1.50
2023-04-20T15:42:07.402Z,3.50
2023-04-20T15:44:35.424Z,3.60
2023-04-20T15:47:03.538Z,2.40
2023-04-20T15:49:31.924Z,3.00
2023-04-20T15:51:59.864Z,1.10
2023-04-20T15:54:27.752Z,1.50
2023-04-20T15:56:55.736Z,1.10
2023-04-20T15:59:23.633Z,1.80
2023-04-20T16:01:51.693Z,2.70
2023-04-20T16:04:20.205Z,1.70
2023-04-20T16:06:48.608Z,1.80
2023-04-20T16:09:17.410Z,2.20
2023-04-20T16:11:46.860Z,3.70
2023-04-20T16:14:14.677Z,4.10
2023-04-20T16:16:42.716Z,5.70
2023-04-20T16:19:11.555Z,5.40
2023-04-20T16:21:39.443Z,6.70
2023-04-20T16:24:07.468Z,6.00
2023-04-20T16:26:35.301Z,2.80
2023-04-20T16:29:03.582Z,1.20
2023-04-20T16:31:31.599Z,1.40
2023-04-20T16:34:00.164Z,1.50
2023-04-20T16:38:50.276Z,1.50
2023-04-20T16:41:18.465Z,1.40
2023-04-20T16:43:46.652Z,1.80
2023-04-20T16:46:16.393Z,1.80
2023-04-20T16:48:44.731Z,1.30
2023-04-20T16:51:12.569Z,1.20
2023-04-20T16:53:40.708Z,1.20
2023-04-20T16:56:10.929Z,1.50
2023-04-20T16:58:39.501Z,1.30
2023-04-20T17:01:07.782Z,1.40
2023-04-20T17:03:36.048Z,1.90
2023-04-20T17:06:07.489Z,1.90
2023-04-20T17:08:39.259Z,1.50
2023-04-20T17:11:07.217Z,1.20
2023-04-20T17:13:38.155Z,1.10
2023-04-20T17:16:06.241Z,1.80
2023-04-20T17:18:35.222Z,1.70
2023-04-20T17:21:03.364Z,1.70
2023-04-20T17:23:33.803Z,1.70
2023-04-20T17:26:02.563Z,1.70
2023-04-20T17:28:30.796Z,1.60
2023-04-20T17:30:58.744Z,2.20
2023-04-20T17:33:26.807Z,2.00
2023-04-20T17:35:56.934Z,2.80
2023-04-20T17:38:24.746Z,3.30
2023-04-20T17:40:52.886Z,3.00
2023-04-20T17:43:20.940Z,2.00
2023-04-20T17:45:50.243Z,2.50
2023-04-20T17:48:18.348Z,2.90
2023-04-20T17:50:50.116Z,2.80
2023-04-20T17:53:18.031Z,2.10
2023-04-20T17:55:46.137Z,2.40
2023-04-20T17:58:14.129Z,2.40
2023-04-20T18:00:43.013Z,1.30
2023-04-20T18:03:11.534Z,2.80
2023-04-20T18:05:41.732Z,2.40
2023-04-20T18:08:10.387Z,2.20
2023-04-20T18:10:38.373Z,2.50
2023-04-20T18:13:06.985Z,2.70
2023-04-20T18:15:35.039Z,2.30
2023-04-20T18:18:03.140Z,2.90
2023-04-20T18:20:32.361Z,2.10
2023-04-20T18:23:00.734Z,2.20
2023-04-20T18:25:28.636Z,1.70
2023-04-20T18:27:56.562Z,1.70
2023-04-20T18:30:24.872Z,2.60
2023-04-20T18:32:53.932Z,1.80
2023-04-20T18:35:21.940Z,2.10
2023-04-20T18:37:51.863Z,1.90
2023-04-20T18:40:19.771Z,2.10
2023-04-20T18:42:47.696Z,2.30
2023-04-20T18:45:16.075Z,2.20
2023-04-20T18:47:44.045Z,2.40
2023-04-20T18:50:12.036Z,1.90
2023-04-20T18:52:40.016Z,2.10
2023-04-20T18:55:09.090Z,2.30
2023-04-20T18:57:37.150Z,1.30
2023-04-20T19:00:08.262Z,2.00
2023-04-20T19:02:36.589Z,1.80
2023-04-20T19:05:05.094Z,1.40
2023-04-20T19:07:33.556Z,1.30
2023-04-20T19:10:01.543Z,2.20
2023-04-20T19:12:29.605Z,1.50
2023-04-20T19:14:57.474Z,1.20
2023-04-20T19:17:25.472Z,2.00
2023-04-20T19:19:55.212Z,1.30
2023-04-20T19:22:23.332Z,1.50
2023-04-20T19:24:51.230Z,1.00
2023-04-20T19:27:19.047Z,1.10
2023-04-20T19:29:46.969Z,1.00
2023-04-20T19:32:14.883Z,1.10
2023-04-20T19:34:42.746Z,1.50
2023-04-20T19:37:10.969Z,1.00
2023-04-20T19:39:39.167Z,1.00
2023-04-20T19:42:07.785Z,1.30
2023-04-20T19:44:36.163Z,1.90
2023-04-20T19:47:04.238Z,1.20
2023-04-20T19:49:32.717Z,1.30
2023-04-20T19:52:00.660Z,1.50
2023-04-20T19:54:28.621Z,0.90
2023-04-20T19:56:57.680Z,1.10
2023-04-20T19:59:26.757Z,1.30
2023-04-20T20:01:54.716Z,1.70
2023-04-20T20:04:22.845Z,0.80
2023-04-20T20:06:51.361Z,1.20
2023-04-20T20:09:23.166Z,0.90
2023-04-20T20:11:52.059Z,1.00
2023-04-20T20:14:20.046Z,0.80
2023-04-20T20:16:47.966Z,0.90
2023-04-20T20:19:18.217Z,0.90
2023-04-20T20:21:46.507Z,0.90
2023-04-20T20:24:14.425Z,0.70
2023-04-20T20:26:42.309Z,1.10
2023-04-20T20:29:10.465Z,1.20
2023-04-20T20:31:38.778Z,0.90
2023-04-20T20:34:08.976Z,0.70
2023-04-20T20:36:37.413Z,1.30
2023-04-20T20:39:06.974Z,0.80
2023-04-20T20:41:35.438Z,0.80
2023-04-20T20:44:03.729Z,1.10
2023-04-20T20:46:32.233Z,0.80
2023-04-20T20:49:01.175Z,0.70
2023-04-20T20:51:29.581Z,0.70
2023-04-20T20:53:58.156Z,0.90
2023-04-20T20:56:26.343Z,0.80
2023-04-20T20:58:54.435Z,0.90
2023-04-20T21:01:22.643Z,1.20
2023-04-20T21:03:50.828Z,0.70
2023-04-20T21:06:18.946Z,1.30
2023-04-20T21:08:46.892Z,1.60
2023-04-20T21:11:14.844Z,0.70
2023-04-20T21:13:42.984Z,0.90
2023-04-20T21:16:10.952Z,0.90
2023-04-20T21:18:39.054Z,0.80
2023-04-20T21:21:06.907Z,0.90
2023-04-20T21:23:34.872Z,1.10
2023-04-20T21:26:02.865Z,0.80
2023-04-20T21:28:31.556Z,1.00
2023-04-20T21:30:59.471Z,1.00
2023-04-20T21:33:27.746Z,1.00
2023-04-20T21:35:57.681Z,1.40
2023-04-20T21:38:26.879Z,1.50
2023-04-20T21:40:54.725Z,1.30
2023-04-20T21:43:22.846Z,1.10
2023-04-20T21:45:51.636Z,1.40
2023-04-20T21:48:19.717Z,1.90
2023-04-20T21:50:47.913Z,1.70
2023-04-20T21:53:15.816Z,1.70
2023-04-20T21:55:43.696Z,1.60
2023-04-20T21:58:11.624Z,0.70
2023-04-20T22:00:39.681Z,1.40
2023-04-20T22:03:07.990Z,1.00
2023-04-20T22:05:36.669Z,1.20
2023-04-20T22:08:04.848Z,0.90
2023-04-20T22:10:33.086Z,1.10
2023-04-20T22:13:00.983Z,0.70
2023-04-20T22:15:28.969Z,1.60
2023-04-20T22:18:00.557Z,0.90
2023-04-20T22:20:28.529Z,1.00
2023-04-20T22:22:57.447Z,0.80
2023-04-20T22:25:25.342Z,0.70
2023-04-20T22:27:53.191Z,0.80
2023-04-20T22:30:21.107Z,0.90
2023-04-20T22:32:49.126Z,0.70
2023-04-20T22:35:17.062Z,1.00
2023-04-20T22:37:44.970Z,1.00
2023-04-20T22:40:14.161Z,0.70
2023-04-20T22:42:42.139Z,0.80
2023-04-20T22:45:11.794Z,0.60
2023-04-20T22:47:39.717Z,0.60
2023-04-20T22:50:09.709Z,0.90
2023-04-20T22:52:38.620Z,0.80
2023-04-20T22:55:07.669Z,0.70
2023-04-20T22:57:35.749Z,0.70
2023-04-20T23:00:07.851Z,1.80
2023-04-20T23:02:37.562Z,0.80
2023-04-20T23:05:06.490Z,1.30
2023-04-20T23:07:35.976Z,1.30
2023-04-20T23:10:06.117Z,2.10
2023-04-20T23:12:34.173Z,2.10
2023-04-20T23:15:02.363Z,1.60
2023-04-20T23:17:30.478Z,1.40
2023-04-20T23:19:58.497Z,1.70
2023-04-20T23:22:26.794Z,1.10
2023-04-20T23:24:57.435Z,0.90
2023-04-20T23:27:25.605Z,1.20
2023-04-20T23:29:53.539Z,1.40
2023-04-20T23:32:21.456Z,1.00
2023-04-20T23:34:49.265Z,0.90
2023-04-20T23:37:17.184Z,1.30
2023-04-20T23:39:45.239Z,0.90
2023-04-20T23:42:13.084Z,0.80
2023-04-20T23:44:41.202Z,0.80
2023-04-20T23:47:09.126Z,1.00
2023-04-20T23:49:37.140Z,0.60
2023-04-20T23:52:05.060Z,0.70
2023-04-20T23:54:33.463Z,1.10
2023-04-20T23:57:02.737Z,0.70
2023-04-20T23:59:31.242Z,0.70
